createdAt,value
2022-11-13T00:02:10.511Z,7.97
2022-11-13T00:04:37.093Z,8.09
2022-11-13T00:07:03.719Z,8.10
2022-11-13T00:14:46.973Z,7.78
2022-11-13T00:19:55.206Z,7.98
2022-11-13T00:22:21.880Z,7.93
2022-11-13T00:24:48.426Z,7.76
2022-11-13T00:27:14.996Z,7.80
2022-11-13T00:29:41.605Z,7.73
2022-11-13T00:32:08.162Z,7.45
2022-11-13T00:34:46.957Z,7.97
2022-11-13T00:37:14.549Z,7.71
2022-11-13T00:39:41.079Z,7.83
2022-11-13T00:42:07.588Z,7.90
2022-11-13T00:44:34.343Z,8.07
2022-11-13T00:47:00.982Z,7.90
2022-11-13T00:49:27.680Z,7.98
2022-11-13T00:51:54.214Z,8.48
2022-11-13T00:54:20.784Z,7.75
2022-11-13T00:56:47.317Z,7.74
2022-11-13T00:59:14.043Z,7.95
2022-11-13T01:01:40.676Z,8.01
2022-11-13T01:04:07.276Z,7.70
2022-11-13T01:06:33.818Z,7.69
2022-11-13T01:09:00.361Z,7.85
2022-11-13T01:11:29.215Z,7.97
2022-11-13T01:13:56.352Z,7.80
2022-11-13T01:16:26.146Z,7.69
2022-11-13T01:21:47.950Z,7.46
2022-11-13T01:24:14.499Z,7.60
2022-11-13T01:26:41.024Z,7.58
2022-11-13T01:29:22.979Z,7.84
2022-11-13T01:31:49.564Z,7.72
2022-11-13T01:34:16.095Z,7.70
2022-11-13T01:36:42.643Z,7.49
2022-11-13T01:39:11.575Z,7.95
2022-11-13T01:41:38.870Z,8.12
2022-11-13T01:47:44.247Z,7.71
2022-11-13T01:50:14.788Z,7.35
2022-11-13T01:52:42.946Z,7.54
2022-11-13T01:55:15.969Z,7.66
2022-11-13T01:57:54.224Z,7.71
2022-11-13T02:00:20.883Z,7.95
2022-11-13T02:02:47.474Z,7.77
2022-11-13T02:05:14.098Z,7.45
2022-11-13T02:07:40.626Z,7.35
2022-11-13T02:10:07.893Z,7.25
2022-11-13T02:12:43.616Z,7.19
2022-11-13T02:15:10.583Z,7.25
2022-11-13T02:17:54.201Z,7.28
2022-11-13T02:20:40.550Z,7.27
2022-11-13T02:23:51.498Z,7.65
2022-11-13T02:26:21.097Z,7.86
2022-11-13T02:28:47.664Z,7.79
2022-11-13T02:31:45.164Z,7.79
2022-11-13T02:34:42.426Z,7.91
2022-11-13T02:37:15.813Z,8.01
2022-11-13T02:44:52.813Z,7.99
2022-11-13T02:47:19.347Z,8.23
2022-11-13T02:49:45.899Z,8.34
2022-11-13T02:57:23.100Z,8.46
2022-11-13T03:02:31.060Z,8.45
2022-11-13T03:05:14.020Z,8.39
2022-11-13T03:08:02.861Z,8.55
2022-11-13T03:10:46.761Z,8.48
2022-11-13T03:13:13.356Z,8.49
2022-11-13T03:15:40.475Z,8.51
2022-11-13T03:18:07.870Z,8.64
2022-11-13T03:20:37.114Z,8.43
2022-11-13T03:23:04.414Z,8.45
2022-11-13T03:25:30.947Z,8.45
2022-11-13T03:27:57.509Z,8.72
2022-11-13T03:30:24.140Z,8.82
2022-11-13T03:32:57.296Z,8.36
2022-11-13T03:35:28.613Z,8.29
2022-11-13T03:37:57.054Z,8.51
2022-11-13T03:48:36.135Z,8.91
2022-11-13T03:51:02.794Z,8.95
2022-11-13T03:53:29.382Z,9.11
2022-11-13T03:56:27.276Z,9.04
2022-11-13T03:59:25.083Z,8.89
2022-11-13T04:02:06.915Z,8.83
2022-11-13T04:04:33.608Z,8.87
2022-11-13T04:07:00.275Z,8.84
2022-11-13T04:09:26.823Z,8.86
2022-11-13T04:11:53.371Z,8.96
2022-11-13T04:14:19.956Z,8.97
2022-11-13T04:16:46.535Z,9.04
2022-11-13T04:19:13.351Z,8.94
2022-11-13T04:21:39.874Z,9.04
2022-11-13T04:24:06.697Z,9.01
2022-11-13T04:26:33.419Z,8.92
2022-11-13T04:28:59.967Z,8.67
2022-11-13T04:31:51.458Z,8.79
2022-11-13T04:34:33.319Z,8.80
2022-11-13T04:36:59.902Z,8.53
2022-11-13T04:39:26.434Z,8.47
2022-11-13T04:42:11.654Z,8.35
2022-11-13T04:45:02.621Z,7.96
2022-11-13T04:47:29.949Z,8.08
2022-11-13T04:49:56.466Z,7.85
2022-11-13T04:52:23.007Z,7.65
2022-11-13T04:54:49.549Z,7.66
2022-11-13T04:57:16.089Z,7.75
2022-11-13T05:00:02.303Z,7.80
2022-11-13T05:05:10.128Z,7.48
2022-11-13T05:07:37.143Z,7.64
2022-11-13T05:10:04.378Z,7.55
2022-11-13T05:12:30.921Z,7.47
2022-11-13T05:14:57.462Z,7.59
2022-11-13T05:17:24.004Z,7.81
2022-11-13T05:20:24.691Z,7.96
2022-11-13T05:23:07.850Z,8.10
2022-11-13T05:25:34.453Z,7.91
2022-11-13T05:28:03.092Z,7.65
2022-11-13T05:30:29.609Z,7.41
2022-11-13T05:33:11.230Z,7.37
2022-11-13T05:35:37.773Z,7.30
2022-11-13T05:38:04.321Z,7.20
2022-11-13T05:40:40.903Z,7.14
2022-11-13T05:43:07.426Z,7.13
2022-11-13T05:45:33.998Z,7.05
2022-11-13T05:48:00.526Z,7.37
2022-11-13T05:50:27.063Z,7.23
2022-11-13T05:52:53.672Z,7.01
2022-11-13T05:55:23.297Z,6.91
2022-11-13T05:57:50.184Z,6.79
2022-11-13T06:00:17.988Z,6.80
2022-11-13T06:02:47.449Z,6.94
2022-11-13T06:05:14.038Z,6.77
2022-11-13T06:07:40.582Z,6.71
2022-11-13T06:17:52.883Z,6.46
2022-11-13T06:20:19.402Z,6.71
2022-11-13T06:22:46.204Z,6.59
2022-11-13T06:25:22.075Z,6.88
2022-11-13T06:27:48.648Z,6.82
2022-11-13T06:30:15.514Z,6.74
2022-11-13T06:32:42.042Z,6.95
2022-11-13T06:35:08.824Z,7.00
2022-11-13T06:37:35.387Z,6.85
2022-11-13T06:40:01.991Z,6.69
2022-11-13T06:45:16.653Z,6.91
2022-11-13T06:50:36.083Z,6.84
2022-11-13T06:53:03.100Z,6.82
2022-11-13T06:56:23.758Z,7.12
2022-11-13T06:59:10.021Z,7.41
2022-11-13T07:01:36.755Z,7.37
2022-11-13T07:04:04.604Z,7.29
2022-11-13T07:06:31.851Z,7.70
2022-11-13T07:09:00.475Z,7.79
2022-11-13T07:11:37.890Z,7.89
2022-11-13T07:36:08.736Z,8.51
2022-11-13T07:38:35.875Z,8.72
2022-11-13T07:44:52.888Z,9.24
2022-11-13T07:47:11.516Z,9.13
2022-11-13T07:49:38.237Z,9.13
2022-11-13T07:52:05.078Z,9.46
2022-11-13T07:54:31.611Z,9.69
2022-11-13T07:56:58.198Z,9.93
2022-11-13T07:59:24.803Z,10.04
2022-11-13T08:01:51.509Z,10.08
2022-11-13T08:04:18.138Z,10.18
2022-11-13T08:06:44.780Z,10.11
2022-11-13T08:09:11.350Z,10.07
2022-11-13T08:11:38.012Z,10.01
2022-11-13T08:14:04.690Z,10.44
2022-11-13T08:16:31.300Z,10.68
2022-11-13T08:18:57.918Z,10.39
2022-11-13T08:21:24.538Z,10.61
2022-11-13T08:23:51.171Z,10.68
2022-11-13T08:26:18.874Z,10.60
2022-11-13T08:28:45.620Z,10.64
2022-11-13T08:31:13.620Z,9.96
2022-11-13T08:33:41.256Z,10.01
2022-11-13T08:36:09.601Z,10.28
2022-11-13T08:38:36.728Z,10.29
2022-11-13T08:41:08.999Z,9.83
2022-11-13T08:43:36.093Z,10.07
2022-11-13T08:46:02.961Z,9.87
2022-11-13T08:48:30.306Z,10.04
2022-11-13T08:50:57.912Z,10.03
2022-11-13T08:53:25.886Z,10.45
2022-11-13T08:55:55.354Z,10.08
2022-11-13T08:58:21.862Z,10.21
2022-11-13T09:00:48.765Z,10.67
2022-11-13T09:03:15.285Z,10.22
2022-11-13T09:05:42.247Z,9.79
2022-11-13T09:08:09.992Z,10.46
2022-11-13T09:10:36.578Z,10.70
2022-11-13T09:13:05.546Z,10.66
2022-11-13T09:15:32.615Z,10.86
2022-11-13T09:18:00.337Z,10.33
2022-11-13T09:20:29.095Z,10.14
2022-11-13T09:23:00.170Z,10.13
2022-11-13T09:25:31.453Z,10.31
2022-11-13T09:28:03.926Z,10.65
2022-11-13T09:30:30.916Z,10.75
2022-11-13T09:32:59.582Z,11.23
2022-11-13T09:35:34.316Z,11.34
2022-11-13T09:38:11.556Z,11.57
2022-11-13T09:40:43.278Z,11.73
2022-11-13T09:43:43.262Z,11.93
2022-11-13T09:46:25.068Z,11.62
2022-11-13T09:48:58.617Z,12.11
2022-11-13T09:51:30.979Z,11.74
2022-11-13T09:53:59.391Z,11.92
2022-11-13T09:56:32.444Z,12.02
2022-11-13T09:58:58.924Z,12.46
2022-11-13T10:01:54.927Z,12.15
2022-11-13T10:04:56.007Z,12.36
2022-11-13T10:07:41.376Z,12.36
2022-11-13T10:10:28.463Z,12.16
2022-11-13T10:12:58.951Z,11.72
2022-11-13T10:15:26.939Z,11.42
2022-11-13T10:18:05.793Z,11.56
2022-11-13T10:20:40.055Z,11.62
2022-11-13T10:23:21.075Z,11.63
2022-11-13T10:25:48.427Z,11.08
2022-11-13T10:31:05.108Z,11.70
2022-11-13T10:33:31.831Z,11.82
2022-11-13T10:36:20.175Z,11.69
2022-11-13T10:39:04.855Z,12.07
2022-11-13T10:41:31.971Z,11.35
2022-11-13T10:44:04.380Z,11.56
2022-11-13T10:46:31.771Z,12.24
2022-11-13T10:48:59.203Z,11.75
2022-11-13T10:51:35.428Z,12.28
2022-11-13T10:54:25.040Z,11.98
2022-11-13T10:57:01.995Z,11.60
2022-11-13T10:59:40.067Z,12.45
2022-11-13T11:02:26.545Z,12.70
2022-11-13T11:05:07.754Z,12.81
2022-11-13T11:07:41.091Z,13.14
2022-11-13T11:10:19.761Z,13.25
2022-11-13T11:12:58.377Z,13.33
2022-11-13T11:15:46.886Z,13.44
2022-11-13T11:18:31.044Z,12.72
2022-11-13T11:21:01.962Z,13.07
2022-11-13T11:23:55.732Z,12.58
2022-11-13T11:26:48.706Z,13.30
2022-11-13T11:29:34.923Z,13.58
2022-11-13T11:32:12.664Z,13.30
2022-11-13T11:34:44.600Z,13.79
2022-11-13T11:37:23.812Z,13.80
2022-11-13T11:39:57.754Z,13.22
2022-11-13T11:42:30.406Z,13.51
2022-11-13T11:45:12.271Z,14.10
2022-11-13T11:47:39.921Z,14.17
2022-11-13T11:50:13.382Z,13.52
2022-11-13T11:52:51.311Z,13.82
2022-11-13T11:55:49.009Z,13.92
2022-11-13T11:58:37.465Z,13.41
2022-11-13T12:01:36.215Z,14.06
2022-11-13T12:04:21.571Z,13.92
2022-11-13T12:07:14.250Z,14.30
2022-11-13T12:10:07.130Z,14.51
2022-11-13T12:12:48.868Z,14.03
2022-11-13T12:15:20.824Z,13.91
2022-11-13T12:18:14.119Z,13.86
2022-11-13T12:20:52.392Z,13.90
2022-11-13T12:23:25.193Z,13.32
2022-11-13T12:26:03.222Z,13.94
2022-11-13T12:28:41.095Z,14.02
2022-11-13T12:31:16.345Z,13.89
2022-11-13T12:34:01.756Z,14.03
2022-11-13T12:36:29.718Z,14.26
2022-11-13T12:42:36.396Z,14.20
2022-11-13T12:45:02.875Z,13.90
2022-11-13T12:47:29.578Z,14.09
2022-11-13T12:50:22.079Z,13.52
2022-11-13T12:52:59.802Z,13.76
2022-11-13T12:55:29.924Z,14.24
2022-11-13T12:58:07.458Z,13.90
2022-11-13T13:00:36.244Z,13.14
2022-11-13T13:03:38.633Z,13.36
2022-11-13T13:09:02.827Z,14.08
2022-11-13T13:11:44.225Z,13.83
2022-11-13T13:14:41.536Z,13.00
2022-11-13T13:17:14.584Z,13.45
2022-11-13T13:22:30.963Z,13.59
2022-11-13T13:25:10.608Z,13.84
2022-11-13T13:27:40.120Z,13.41
2022-11-13T13:30:17.379Z,14.07
2022-11-13T13:33:19.163Z,13.76
2022-11-13T13:35:57.767Z,13.47
2022-11-13T13:38:33.033Z,13.04
2022-11-13T13:41:21.235Z,13.42
2022-11-13T13:43:50.798Z,13.76
2022-11-13T13:46:24.620Z,14.01
2022-11-13T13:48:55.572Z,13.29
2022-11-13T13:51:32.802Z,12.96
2022-11-13T13:54:02.091Z,12.83
2022-11-13T13:56:28.662Z,13.07
2022-11-13T13:58:55.354Z,12.94
2022-11-13T14:01:35.580Z,13.35
2022-11-13T14:04:20.907Z,13.61
2022-11-13T14:09:47.732Z,13.45
2022-11-13T14:12:22.266Z,13.78
2022-11-13T14:14:49.121Z,13.32
2022-11-13T14:17:24.966Z,13.34
2022-11-13T14:19:53.251Z,13.74
2022-11-13T14:22:21.315Z,13.47
2022-11-13T14:25:00.665Z,13.60
2022-11-13T14:27:28.476Z,13.65
2022-11-13T14:30:04.057Z,13.50
2022-11-13T14:32:33.857Z,13.29
2022-11-13T14:35:03.334Z,13.37
2022-11-13T14:37:38.730Z,12.96
2022-11-13T14:40:19.269Z,13.51
2022-11-13T14:42:50.841Z,13.21
2022-11-13T15:35:26.766Z,12.17
2022-11-13T15:37:54.290Z,12.19
2022-11-13T15:40:21.034Z,12.02
2022-11-13T15:42:47.740Z,11.83
2022-11-13T15:45:16.460Z,11.61
2022-11-13T15:47:43.167Z,11.67
2022-11-13T15:50:13.810Z,11.54
2022-11-13T15:52:47.350Z,11.45
2022-11-13T15:55:28.836Z,11.31
2022-11-13T15:57:55.752Z,11.35
2022-11-13T16:00:27.681Z,11.30
2022-11-13T16:02:56.179Z,10.90
2022-11-13T16:05:25.839Z,11.02
2022-11-13T16:07:53.611Z,10.84
2022-11-13T16:10:31.341Z,10.67
2022-11-13T16:12:57.847Z,10.76
2022-11-13T16:15:24.458Z,10.18
2022-11-13T16:17:55.102Z,10.19
2022-11-13T16:20:21.789Z,10.25
2022-11-13T16:22:48.411Z,10.01
2022-11-13T16:25:19.270Z,9.83
2022-11-13T16:27:46.579Z,10.01
2022-11-13T16:30:20.182Z,10.20
2022-11-13T16:32:47.377Z,10.10
2022-11-13T16:35:19.770Z,10.03
2022-11-13T16:37:46.986Z,9.96
2022-11-13T16:40:21.151Z,9.76
2022-11-13T16:42:47.986Z,9.75
2022-11-13T16:45:14.881Z,9.88
2022-11-13T16:47:41.518Z,9.54
2022-11-13T16:50:24.047Z,9.86
2022-11-13T16:52:51.041Z,10.23
2022-11-13T16:55:17.684Z,10.20
2022-11-13T17:06:09.264Z,10.38
2022-11-13T17:08:35.856Z,10.43
2022-11-13T17:11:02.643Z,10.27
2022-11-13T17:13:29.632Z,10.13
2022-11-13T17:16:01.488Z,10.27
2022-11-13T17:18:28.032Z,10.26
2022-11-13T17:20:54.605Z,10.36
2022-11-13T17:23:21.192Z,10.16
2022-11-13T17:25:47.943Z,10.02
2022-11-13T17:28:15.991Z,10.16
2022-11-13T17:30:42.604Z,10.20
2022-11-13T17:33:09.147Z,10.15
2022-11-13T17:35:35.663Z,9.80
2022-11-13T17:38:02.468Z,9.40
2022-11-13T17:40:29.014Z,9.27
2022-11-13T17:48:40.969Z,9.58
2022-11-13T17:51:11.457Z,9.67
2022-11-13T17:53:39.627Z,9.60
2022-11-13T17:56:10.393Z,9.62
2022-11-13T17:58:39.753Z,9.48
2022-11-13T18:01:10.335Z,9.28
2022-11-13T18:03:37.181Z,9.04
2022-11-13T18:06:19.555Z,9.37
2022-11-13T18:08:46.886Z,9.57
2022-11-13T18:11:19.216Z,9.60
2022-11-13T18:13:47.228Z,9.57
2022-11-13T18:16:20.157Z,9.59
2022-11-13T18:18:53.571Z,9.56
2022-11-13T18:21:23.810Z,9.49
2022-11-13T18:23:57.248Z,9.49
2022-11-13T18:26:24.741Z,9.50
2022-11-13T18:28:53.767Z,9.51
2022-11-13T18:31:20.699Z,9.40
2022-11-13T18:33:47.825Z,9.43
2022-11-13T18:36:14.407Z,9.30
2022-11-13T18:38:41.411Z,9.38
2022-11-13T18:41:10.902Z,9.40
2022-11-13T18:43:37.883Z,9.42
2022-11-13T18:46:06.945Z,9.38
2022-11-13T18:48:35.634Z,9.27
2022-11-13T18:51:08.222Z,9.25
2022-11-13T18:53:37.985Z,9.24
2022-11-13T18:56:06.890Z,9.22
2022-11-13T18:58:37.274Z,9.21
2022-11-13T19:01:27.524Z,9.20
2022-11-13T19:04:21.148Z,9.03
2022-11-13T19:06:43.367Z,8.89
2022-11-13T19:09:15.237Z,8.78
2022-11-13T19:11:42.996Z,8.80
2022-11-13T19:14:10.996Z,8.62
2022-11-13T19:16:45.212Z,8.07
2022-11-13T19:19:17.923Z,7.91
2022-11-13T19:21:53.516Z,7.94
2022-11-13T19:24:20.097Z,7.92
2022-11-13T19:26:46.754Z,8.05
2022-11-13T19:29:13.863Z,7.72
2022-11-13T19:31:40.596Z,7.91
2022-11-13T19:34:08.302Z,8.23
2022-11-13T19:36:35.655Z,8.45
2022-11-13T19:39:03.136Z,8.46
2022-11-13T19:41:29.942Z,8.55
2022-11-13T19:43:59.322Z,8.67
2022-11-13T19:46:26.021Z,8.75
2022-11-13T19:48:52.567Z,8.79
2022-11-13T19:51:23.191Z,8.77
2022-11-13T19:53:54.961Z,8.81
2022-11-13T19:56:23.032Z,8.82
2022-11-13T19:58:51.277Z,8.62
2022-11-13T20:01:23.998Z,8.61
2022-11-13T20:03:58.911Z,8.66
2022-11-13T20:06:26.366Z,8.63
2022-11-13T20:08:52.929Z,8.60
2022-11-13T20:11:20.496Z,8.63
2022-11-13T20:13:47.337Z,8.63
2022-11-13T20:16:30.199Z,8.56
2022-11-13T20:18:57.828Z,8.69
2022-11-13T20:21:26.570Z,8.69
2022-11-13T20:23:55.766Z,8.52
2022-11-13T20:27:21.540Z,8.58
2022-11-13T20:30:04.679Z,8.79
2022-11-13T20:32:31.401Z,8.81
2022-11-13T20:34:57.980Z,8.85
2022-11-13T20:37:24.564Z,8.88
2022-11-13T20:39:51.955Z,8.58
2022-11-13T20:42:29.231Z,8.24
2022-11-13T20:44:59.978Z,7.80
2022-11-13T20:47:27.760Z,7.74
2022-11-13T20:49:54.303Z,7.93
2022-11-13T20:52:20.822Z,7.82
2022-11-13T20:54:47.331Z,7.74
2022-11-13T20:57:13.927Z,8.11
2022-11-13T20:59:40.440Z,8.49
2022-11-13T21:02:07.119Z,8.17
2022-11-13T21:04:33.900Z,8.20
2022-11-13T21:07:00.577Z,8.38
2022-11-13T21:09:27.179Z,8.31
2022-11-13T21:11:53.757Z,8.01
2022-11-13T21:14:42.268Z,8.12
2022-11-13T21:17:09.115Z,8.05
2022-11-13T21:19:35.693Z,8.04
2022-11-13T21:22:02.320Z,8.02
2022-11-13T21:33:09.322Z,7.89
2022-11-13T21:35:35.887Z,7.39
2022-11-13T21:38:04.713Z,7.41
2022-11-13T21:40:31.291Z,7.81
2022-11-13T21:42:57.916Z,7.56
2022-11-13T21:56:15.677Z,8.01
2022-11-13T21:58:43.478Z,8.19
2022-11-13T22:01:38.547Z,8.00
2022-11-13T22:04:27.804Z,7.46
2022-11-13T22:06:54.433Z,6.98
2022-11-13T22:09:23.877Z,7.59
2022-11-13T22:11:51.036Z,7.79
2022-11-13T22:14:17.610Z,7.84
2022-11-13T22:16:46.743Z,7.87
2022-11-13T22:24:23.889Z,7.53
2022-11-13T22:26:50.483Z,7.79
2022-11-13T22:29:17.243Z,7.25
2022-11-13T22:31:44.994Z,7.50
2022-11-13T22:34:11.814Z,7.66
2022-11-13T22:36:38.427Z,7.80
2022-11-13T22:39:06.051Z,7.04
2022-11-13T22:41:34.840Z,6.86
2022-11-13T22:44:03.141Z,6.41
2022-11-13T22:46:32.119Z,6.58
2022-11-13T22:49:17.069Z,6.80
2022-11-13T22:51:43.605Z,7.30
2022-11-13T22:54:12.376Z,6.95
2022-11-13T22:56:40.765Z,6.66
2022-11-13T22:59:40.266Z,6.35
2022-11-13T23:05:31.142Z,6.24
2022-11-13T23:07:57.720Z,6.48
2022-11-13T23:10:27.668Z,5.97
2022-11-13T23:12:54.488Z,6.32
2022-11-13T23:15:21.120Z,6.07
2022-11-13T23:17:47.713Z,5.98
2022-11-13T23:20:33.103Z,6.10
2022-11-13T23:22:59.697Z,6.73
2022-11-13T23:25:26.316Z,6.62
2022-11-13T23:27:52.867Z,6.99
2022-11-13T23:30:42.076Z,6.99
2022-11-13T23:33:31.430Z,7.16
2022-11-13T23:36:02.924Z,6.93
2022-11-13T23:38:29.841Z,6.40
2022-11-13T23:40:58.533Z,6.95
2022-11-13T23:43:47.391Z,7.13
2022-11-13T23:46:13.236Z,7.22
2022-11-13T23:48:40.283Z,7.45
2022-11-13T23:51:07.390Z,6.81
2022-11-13T23:53:33.986Z,6.69
